createdAt,value
2023-01-21T00:01:37.354Z,77.37
2023-01-21T00:04:05.006Z,76.96
2023-01-21T00:06:32.619Z,76.88
2023-01-21T00:09:02.429Z,77.18
2023-01-21T00:11:30.159Z,76.92
2023-01-21T00:14:01.331Z,77.23
2023-01-21T00:16:28.861Z,77.58
2023-01-21T00:18:56.942Z,77.04
2023-01-21T00:21:24.569Z,76.87
2023-01-21T00:23:52.175Z,77.36
2023-01-21T00:26:19.820Z,77.35
2023-01-21T00:28:48.415Z,77.07
2023-01-21T00:31:17.514Z,76.91
2023-01-21T00:33:45.409Z,76.28
2023-01-21T00:36:18.259Z,76.34
2023-01-21T00:38:49.150Z,76.48
2023-01-21T00:41:17.225Z,76.27
2023-01-21T00:43:45.114Z,75.85
2023-01-21T00:46:12.897Z,75.55
2023-01-21T00:48:41.849Z,75.64
2023-01-21T00:51:09.965Z,75.64
2023-01-21T00:53:41.678Z,75.52
2023-01-21T00:56:11.654Z,75.59
2023-01-21T00:58:39.716Z,75.35
2023-01-21T01:01:09.925Z,76.48
2023-01-21T01:03:39.221Z,76.52
2023-01-21T01:06:10.344Z,76.71
2023-01-21T01:08:37.934Z,76.51
2023-01-21T01:11:06.061Z,77.31
2023-01-21T01:13:34.636Z,76.70
2023-01-21T01:16:02.664Z,76.98
2023-01-21T01:18:32.459Z,77.11
2023-01-21T01:21:00.548Z,76.19
2023-01-21T01:23:30.113Z,77.06
2023-01-21T01:25:59.517Z,77.17
2023-01-21T01:28:27.627Z,76.77
2023-01-21T01:30:55.721Z,76.14
2023-01-21T01:33:23.892Z,76.26
2023-01-21T01:35:51.830Z,76.85
2023-01-21T01:38:21.947Z,77.12
2023-01-21T01:40:53.636Z,76.66
2023-01-21T01:43:24.545Z,76.75
2023-01-21T01:45:52.695Z,76.84
2023-01-21T01:48:24.875Z,76.81
2023-01-21T01:50:52.786Z,76.62
2023-01-21T01:53:20.765Z,76.40
2023-01-21T01:55:51.098Z,75.91
2023-01-21T01:58:21.825Z,76.02
2023-01-21T02:00:49.736Z,75.32
2023-01-21T02:03:36.196Z,76.64
2023-01-21T02:06:04.343Z,77.55
2023-01-21T02:08:34.362Z,77.92
2023-01-21T02:11:03.365Z,77.82
2023-01-21T02:13:33.164Z,78.63
2023-01-21T02:16:14.470Z,78.29
2023-01-21T02:18:50.475Z,76.59
2023-01-21T02:21:53.453Z,76.56
2023-01-21T02:25:00.616Z,75.89
2023-01-21T02:27:42.865Z,76.65
2023-01-21T02:30:42.372Z,76.23
2023-01-21T02:33:32.866Z,76.51
2023-01-21T02:36:13.424Z,76.85
2023-01-21T02:38:47.651Z,76.58
2023-01-21T02:41:24.163Z,75.37
2023-01-21T02:43:58.221Z,74.94
2023-01-21T02:46:32.376Z,74.15
2023-01-21T02:49:05.644Z,75.06
2023-01-21T02:51:33.386Z,74.74
2023-01-21T02:54:00.919Z,75.13
2023-01-21T02:56:28.728Z,75.46
2023-01-21T02:59:00.542Z,76.36
2023-01-21T03:01:49.345Z,76.15
2023-01-21T03:04:45.695Z,75.23
2023-01-21T03:07:20.336Z,75.52
2023-01-21T03:09:47.891Z,74.45
2023-01-21T03:12:31.813Z,74.92
2023-01-21T03:15:22.828Z,74.96
2023-01-21T03:17:58.492Z,76.02
2023-01-21T03:20:31.575Z,75.49
2023-01-21T03:23:03.820Z,74.76
2023-01-21T03:25:34.203Z,76.18
2023-01-21T03:28:05.877Z,75.84
2023-01-21T03:30:36.198Z,75.71
2023-01-21T03:33:05.094Z,76.24
2023-01-21T03:35:38.563Z,76.21
2023-01-21T03:38:12.869Z,76.27
2023-01-21T03:40:44.252Z,76.10
2023-01-21T03:43:11.998Z,75.13
2023-01-21T03:45:47.328Z,75.95
2023-01-21T03:48:20.054Z,75.88
2023-01-21T03:50:56.275Z,76.35
2023-01-21T03:53:24.206Z,77.16
2023-01-21T03:55:52.681Z,77.14
2023-01-21T03:58:20.432Z,77.65
2023-01-21T04:00:49.154Z,77.34
2023-01-21T04:03:16.738Z,76.35
2023-01-21T04:05:44.466Z,80.87
2023-01-21T04:08:13.421Z,82.40
2023-01-21T04:10:40.982Z,80.29
2023-01-21T04:13:08.598Z,81.13
2023-01-21T04:15:36.171Z,83.36
2023-01-21T04:18:03.748Z,82.16
2023-01-21T04:20:31.312Z,79.89
2023-01-21T04:22:58.951Z,79.57
2023-01-21T04:25:28.082Z,77.79
2023-01-21T04:27:55.691Z,75.78
2023-01-21T04:30:23.260Z,75.90
2023-01-21T04:32:50.822Z,76.02
2023-01-21T04:35:18.372Z,76.21
2023-01-21T04:37:45.959Z,76.25
2023-01-21T04:40:13.814Z,75.95
2023-01-21T04:42:57.751Z,75.96
2023-01-21T04:45:25.332Z,77.11
2023-01-21T04:47:52.857Z,77.32
2023-01-21T04:50:20.590Z,78.53
2023-01-21T04:52:48.143Z,78.32
2023-01-21T04:55:15.919Z,78.94
2023-01-21T04:57:44.827Z,78.70
2023-01-21T05:00:13.342Z,78.88
2023-01-21T05:02:40.932Z,80.14
2023-01-21T05:05:09.197Z,80.43
2023-01-21T05:07:36.830Z,80.81
2023-01-21T05:10:05.186Z,81.19
2023-01-21T05:12:32.753Z,81.04
2023-01-21T05:15:01.602Z,80.28
2023-01-21T05:17:29.148Z,80.97
2023-01-21T05:19:56.642Z,85.85
2023-01-21T05:22:24.164Z,82.89
2023-01-21T05:24:51.707Z,81.32
2023-01-21T05:27:19.883Z,81.19
2023-01-21T05:29:47.454Z,81.49
2023-01-21T05:32:16.389Z,82.35
2023-01-21T05:34:43.920Z,81.34
2023-01-21T05:37:11.671Z,82.98
2023-01-21T05:39:39.365Z,82.98
2023-01-21T05:42:06.995Z,84.76
2023-01-21T05:44:34.608Z,85.52
2023-01-21T05:47:02.144Z,86.22
2023-01-21T05:49:31.051Z,85.09
2023-01-21T05:51:58.591Z,85.56
2023-01-21T05:54:26.154Z,86.07
2023-01-21T05:56:53.882Z,87.08
2023-01-21T05:59:21.454Z,86.47
2023-01-21T06:01:48.971Z,90.18
2023-01-21T06:04:16.511Z,88.34
2023-01-21T06:06:45.462Z,87.44
2023-01-21T06:09:12.983Z,86.87
2023-01-21T06:11:42.028Z,87.75
2023-01-21T06:14:09.726Z,87.80
2023-01-21T06:16:37.301Z,89.31
2023-01-21T06:19:04.876Z,89.01
2023-01-21T06:21:32.474Z,89.50
2023-01-21T06:24:02.463Z,89.49
2023-01-21T06:26:33.997Z,91.79
2023-01-21T06:29:01.904Z,89.62
2023-01-21T06:31:29.533Z,88.54
2023-01-21T06:33:57.317Z,89.03
2023-01-21T06:36:24.830Z,89.38
2023-01-21T06:38:52.471Z,89.07
2023-01-21T06:41:21.418Z,89.53
2023-01-21T06:43:48.920Z,88.97
2023-01-21T06:46:16.621Z,88.08
2023-01-21T06:48:44.213Z,88.68
2023-01-21T06:51:11.845Z,88.90
2023-01-21T06:53:39.443Z,89.58
2023-01-21T06:56:07.504Z,88.45
2023-01-21T06:58:36.471Z,88.89
2023-01-21T07:01:04.112Z,89.21
2023-01-21T07:03:31.749Z,89.62
2023-01-21T07:05:59.306Z,89.36
2023-01-21T07:08:26.943Z,88.55
2023-01-21T07:10:54.516Z,88.91
2023-01-21T07:13:22.069Z,88.70
2023-01-21T07:15:51.033Z,88.90
2023-01-21T07:18:18.577Z,88.74
2023-01-21T07:20:46.152Z,88.88
2023-01-21T07:23:13.714Z,92.46
2023-01-21T07:25:41.241Z,91.27
2023-01-21T07:28:08.828Z,87.71
2023-01-21T07:30:37.447Z,86.90
2023-01-21T07:33:07.715Z,85.94
2023-01-21T07:35:35.541Z,86.16
2023-01-21T07:38:03.246Z,84.83
2023-01-21T07:40:30.776Z,84.35
2023-01-21T07:42:58.431Z,83.52
2023-01-21T07:45:26.263Z,85.32
2023-01-21T07:47:53.816Z,84.94
2023-01-21T07:50:22.765Z,84.37
2023-01-21T07:55:33.084Z,84.13
2023-01-21T07:58:00.799Z,84.63
2023-01-21T08:00:29.161Z,85.30
2023-01-21T08:02:57.328Z,85.54
2023-01-21T08:05:27.100Z,84.31
2023-01-21T08:07:58.358Z,85.00
2023-01-21T08:10:26.823Z,84.13
2023-01-21T08:12:54.457Z,84.86
2023-01-21T08:15:22.016Z,87.17
2023-01-21T08:17:50.492Z,86.93
2023-01-21T08:20:18.251Z,86.55
2023-01-21T08:22:47.178Z,84.97
2023-01-21T08:25:15.001Z,84.65
2023-01-21T08:27:42.685Z,83.11
2023-01-21T08:30:11.492Z,82.13
2023-01-21T08:32:39.231Z,81.81
2023-01-21T08:35:08.189Z,82.05
2023-01-21T08:37:35.760Z,83.08
2023-01-21T08:40:05.074Z,82.95
2023-01-21T08:42:32.734Z,82.48
2023-01-21T08:45:00.349Z,82.77
2023-01-21T08:47:28.005Z,81.98
2023-01-21T08:49:55.631Z,82.01
2023-01-21T08:52:23.381Z,82.04
2023-01-21T08:54:50.983Z,82.45
2023-01-21T08:57:19.986Z,82.22
2023-01-21T08:59:47.649Z,81.06
2023-01-21T09:02:15.249Z,81.02
2023-01-21T09:04:42.922Z,80.62
2023-01-21T09:07:10.564Z,80.00
2023-01-21T09:09:38.137Z,80.13
2023-01-21T09:12:06.878Z,79.85
2023-01-21T09:14:35.767Z,80.26
2023-01-21T09:17:03.334Z,79.74
2023-01-21T09:19:30.940Z,79.25
2023-01-21T09:21:58.556Z,79.52
2023-01-21T09:24:26.366Z,79.14
2023-01-21T09:26:53.948Z,79.42
2023-01-21T09:29:21.598Z,79.68
2023-01-21T09:31:50.541Z,79.44
2023-01-21T09:34:18.144Z,79.60
2023-01-21T09:36:45.705Z,78.69
2023-01-21T09:39:13.253Z,79.22
2023-01-21T09:41:44.276Z,79.34
2023-01-21T09:44:20.317Z,78.31
2023-01-21T09:46:53.868Z,77.79
2023-01-21T09:49:25.407Z,77.62
2023-01-21T09:52:00.327Z,77.14
2023-01-21T09:54:30.278Z,77.01
2023-01-21T09:57:30.859Z,76.73
2023-01-21T10:00:08.942Z,77.02
2023-01-21T10:02:50.044Z,77.29
2023-01-21T10:05:40.996Z,76.29
2023-01-21T10:08:17.478Z,76.41
2023-01-21T10:10:50.295Z,77.71
2023-01-21T10:13:42.118Z,77.48
2023-01-21T10:16:16.125Z,77.75
2023-01-21T10:18:48.264Z,77.62
2023-01-21T10:21:22.151Z,77.11
2023-01-21T10:23:53.259Z,76.56
2023-01-21T10:26:20.945Z,75.19
2023-01-21T10:28:51.592Z,76.33
2023-01-21T10:31:22.951Z,76.51
2023-01-21T10:33:52.517Z,76.94
2023-01-21T10:36:51.503Z,77.07
2023-01-21T10:39:29.836Z,76.92
2023-01-21T10:42:19.537Z,75.52
2023-01-21T10:44:53.919Z,76.10
2023-01-21T10:47:31.203Z,76.84
2023-01-21T10:50:05.210Z,76.15
2023-01-21T10:52:41.985Z,76.17
2023-01-21T10:55:27.826Z,76.73
2023-01-21T10:57:59.753Z,76.42
2023-01-21T11:00:30.218Z,76.77
2023-01-21T11:03:02.502Z,74.88
2023-01-21T11:05:32.100Z,75.41
2023-01-21T11:08:00.384Z,74.94
2023-01-21T11:10:29.054Z,74.81
2023-01-21T11:12:57.266Z,74.35
2023-01-21T11:15:25.227Z,74.51
2023-01-21T11:17:56.349Z,74.97
2023-01-21T11:20:30.264Z,75.03
2023-01-21T11:22:59.321Z,74.48
2023-01-21T11:25:32.203Z,74.33
2023-01-21T11:27:59.844Z,73.68
2023-01-21T11:30:49.436Z,74.61
2023-01-21T11:33:26.888Z,74.57
2023-01-21T11:35:56.108Z,75.33
2023-01-21T11:38:33.064Z,74.39
2023-01-21T11:41:05.216Z,75.70
2023-01-21T11:43:35.371Z,74.59
2023-01-21T11:46:22.728Z,74.41
2023-01-21T11:48:50.656Z,73.93
2023-01-21T11:51:18.673Z,74.49
2023-01-21T11:53:47.612Z,73.48
2023-01-21T11:56:16.944Z,74.93
2023-01-21T11:58:44.557Z,75.60
2023-01-21T12:01:21.118Z,76.03
2023-01-21T12:03:53.067Z,75.36
2023-01-21T12:06:23.444Z,76.17
2023-01-21T12:08:54.358Z,76.49
2023-01-21T12:11:25.895Z,76.02
2023-01-21T12:14:02.231Z,76.33
2023-01-21T12:16:35.242Z,76.37
2023-01-21T12:19:25.066Z,76.90
2023-01-21T12:22:15.546Z,76.85
2023-01-21T12:25:03.650Z,77.64
2023-01-21T12:27:36.548Z,78.82
2023-01-21T12:30:13.039Z,79.61
2023-01-21T12:32:45.713Z,79.44
2023-01-21T12:35:19.009Z,80.25
2023-01-21T12:37:52.244Z,80.67
2023-01-21T12:40:29.848Z,80.23
2023-01-21T12:43:01.467Z,80.73
2023-01-21T12:45:36.229Z,81.31
2023-01-21T12:48:11.005Z,81.16
2023-01-21T12:50:43.691Z,81.97
2023-01-21T12:53:20.845Z,82.30
2023-01-21T12:56:08.043Z,82.87
2023-01-21T12:58:40.157Z,83.14
2023-01-21T13:01:12.048Z,82.72
2023-01-21T13:03:51.335Z,81.98
2023-01-21T13:06:29.576Z,83.47
2023-01-21T13:09:09.383Z,81.97
2023-01-21T13:11:45.323Z,82.10
2023-01-21T13:14:24.254Z,83.67
2023-01-21T13:16:58.603Z,81.66
2023-01-21T13:19:26.282Z,81.43
2023-01-21T13:22:02.391Z,82.45
2023-01-21T13:24:34.233Z,83.18
2023-01-21T13:27:12.966Z,82.75
2023-01-21T13:29:47.967Z,83.64
2023-01-21T13:32:26.258Z,82.98
2023-01-21T13:35:06.552Z,83.95
2023-01-21T13:37:40.461Z,83.72
2023-01-21T13:40:26.627Z,84.49
2023-01-21T13:43:07.570Z,85.76
2023-01-21T13:45:50.470Z,85.44
2023-01-21T13:48:29.215Z,83.98
2023-01-21T13:51:16.133Z,84.93
2023-01-21T13:54:00.554Z,85.04
2023-01-21T13:56:43.589Z,84.57
2023-01-21T13:59:17.890Z,84.98
2023-01-21T14:01:51.319Z,84.55
2023-01-21T14:04:26.891Z,84.60
2023-01-21T14:07:01.765Z,84.83
2023-01-21T14:09:37.173Z,86.10
2023-01-21T14:12:11.976Z,85.79
2023-01-21T14:15:15.879Z,87.48
2023-01-21T14:18:07.799Z,86.82
2023-01-21T14:21:02.039Z,87.47
2023-01-21T14:23:42.917Z,86.66
2023-01-21T14:26:20.485Z,86.44
2023-01-21T14:29:01.559Z,86.25
2023-01-21T14:31:36.625Z,86.51
2023-01-21T14:34:16.012Z,87.36
2023-01-21T14:36:52.673Z,87.54
2023-01-21T14:39:34.772Z,87.08
2023-01-21T14:42:10.711Z,86.88
2023-01-21T14:44:41.537Z,86.03
2023-01-21T14:47:22.701Z,86.70
2023-01-21T14:49:53.947Z,85.99
2023-01-21T14:52:28.823Z,86.20
2023-01-21T14:54:56.506Z,85.60
2023-01-21T14:57:28.935Z,86.73
2023-01-21T15:00:05.963Z,86.66
2023-01-21T15:02:41.306Z,86.27
2023-01-21T15:05:24.846Z,86.52
2023-01-21T15:08:05.459Z,86.77
2023-01-21T15:10:36.035Z,86.66
2023-01-21T15:13:07.383Z,86.68
2023-01-21T15:15:40.815Z,86.73
2023-01-21T15:18:26.281Z,86.39
2023-01-21T15:20:58.101Z,87.01
2023-01-21T15:23:37.874Z,86.65
2023-01-21T15:26:19.167Z,85.72
2023-01-21T15:28:47.492Z,86.27
2023-01-21T15:31:41.088Z,86.88
2023-01-21T15:34:14.261Z,86.48
2023-01-21T15:36:47.732Z,87.02
2023-01-21T15:39:17.704Z,86.65
2023-01-21T15:41:57.841Z,87.13
2023-01-21T15:44:49.144Z,87.21
2023-01-21T15:47:41.038Z,88.12
2023-01-21T15:50:20.965Z,88.43
2023-01-21T15:53:03.388Z,87.49
2023-01-21T15:55:41.721Z,87.54
2023-01-21T15:58:21.616Z,88.27
2023-01-21T16:00:55.172Z,88.17
2023-01-21T16:03:28.443Z,88.94
2023-01-21T16:06:03.785Z,88.48
2023-01-21T16:08:48.289Z,88.76
2023-01-21T16:11:40.351Z,89.15
2023-01-21T16:14:24.217Z,88.60
2023-01-21T16:17:02.548Z,89.06
2023-01-21T16:19:34.732Z,89.83
2023-01-21T16:22:07.441Z,89.51
2023-01-21T16:24:41.407Z,89.86
2023-01-21T16:27:19.763Z,88.84
2023-01-21T16:29:47.391Z,90.09
2023-01-21T16:32:19.938Z,89.54
2023-01-21T16:34:47.892Z,89.88
2023-01-21T16:37:18.951Z,90.45
2023-01-21T16:39:47.988Z,89.89
2023-01-21T16:42:25.777Z,89.23
2023-01-21T16:44:56.526Z,90.60
2023-01-21T16:47:27.075Z,91.15
2023-01-21T16:49:54.703Z,90.40
2023-01-21T16:52:24.413Z,90.71
2023-01-21T16:54:55.252Z,89.35
2023-01-21T16:57:28.740Z,88.88
2023-01-21T16:59:57.929Z,89.91
2023-01-21T17:02:28.645Z,89.15
2023-01-21T17:04:58.398Z,89.11
2023-01-21T17:07:29.473Z,89.56
2023-01-21T17:10:01.626Z,88.62
2023-01-21T17:12:31.525Z,88.37
2023-01-21T17:15:02.450Z,88.49
2023-01-21T17:17:31.976Z,87.92
2023-01-21T17:20:00.217Z,88.47
2023-01-21T17:22:31.895Z,88.42
2023-01-21T17:25:07.316Z,88.97
2023-01-21T17:27:37.695Z,88.52
2023-01-21T17:30:26.211Z,88.26
2023-01-21T17:32:55.418Z,88.68
2023-01-21T17:35:25.512Z,88.79
2023-01-21T17:37:55.252Z,87.93
2023-01-21T17:40:29.819Z,88.02
2023-01-21T17:42:58.871Z,87.66
2023-01-21T17:45:32.874Z,87.82
2023-01-21T17:48:12.438Z,87.76
2023-01-21T17:50:47.173Z,86.96
2023-01-21T17:53:22.820Z,86.15
2023-01-21T17:56:01.098Z,87.46
2023-01-21T17:58:47.068Z,87.16
2023-01-21T18:01:15.429Z,88.02
2023-01-21T18:03:43.234Z,88.01
2023-01-21T18:06:18.271Z,88.50
2023-01-21T18:08:45.913Z,87.83
2023-01-21T18:11:18.010Z,87.04
2023-01-21T18:13:45.558Z,87.34
2023-01-21T18:16:13.442Z,87.91
2023-01-21T18:18:41.900Z,87.26
2023-01-21T18:21:18.278Z,87.65
2023-01-21T18:23:45.902Z,88.21
2023-01-21T18:26:21.300Z,87.73
2023-01-21T18:28:48.894Z,87.58
2023-01-21T18:31:16.570Z,87.37
2023-01-21T18:33:44.305Z,88.34
2023-01-21T18:36:12.528Z,88.49
2023-01-21T18:38:40.210Z,87.55
2023-01-21T18:41:09.083Z,88.45
2023-01-21T18:43:37.993Z,87.76
2023-01-21T18:46:12.090Z,88.10
2023-01-21T18:48:39.644Z,88.69
2023-01-21T18:51:07.290Z,88.76
2023-01-21T18:53:34.861Z,90.38
2023-01-21T18:56:04.967Z,90.68
2023-01-21T18:58:32.911Z,90.53
2023-01-21T19:01:10.814Z,89.83
2023-01-21T19:03:43.312Z,89.56
2023-01-21T19:06:16.728Z,89.37
2023-01-21T19:08:48.393Z,89.63
2023-01-21T19:11:16.291Z,90.50
2023-01-21T19:13:43.863Z,90.80
2023-01-21T19:16:16.704Z,90.84
2023-01-21T19:18:44.529Z,90.43
2023-01-21T19:21:12.757Z,90.30
2023-01-21T19:23:40.971Z,90.41
2023-01-21T19:26:12.937Z,91.05
2023-01-21T19:28:40.557Z,90.81
2023-01-21T19:31:08.305Z,91.12
2023-01-21T19:33:37.323Z,90.38
2023-01-21T19:36:14.822Z,90.68
2023-01-21T19:38:44.157Z,91.95
2023-01-21T19:41:11.963Z,91.84
2023-01-21T19:43:41.059Z,98.36
2023-01-21T19:46:11.790Z,99.93
2023-01-21T19:48:41.464Z,100.00
2023-01-21T19:51:09.126Z,100.00
2023-01-21T19:53:37.431Z,97.08
2023-01-21T19:56:06.055Z,94.54
2023-01-21T19:58:36.112Z,92.86
2023-01-21T20:01:03.869Z,92.24
2023-01-21T20:03:31.529Z,92.93
2023-01-21T20:06:03.026Z,93.33
2023-01-21T20:08:33.060Z,93.86
2023-01-21T20:11:00.667Z,93.50
2023-01-21T20:13:32.189Z,93.07
2023-01-21T20:16:02.527Z,92.77
2023-01-21T20:18:32.479Z,92.76
2023-01-21T20:21:01.441Z,92.53
2023-01-21T20:23:30.974Z,93.17
2023-01-21T20:26:00.067Z,94.28
2023-01-21T20:28:30.982Z,94.55
2023-01-21T20:31:02.443Z,94.69
2023-01-21T20:33:30.048Z,94.20
2023-01-21T20:35:57.782Z,95.69
2023-01-21T20:38:30.058Z,94.77
2023-01-21T20:40:57.932Z,95.65
2023-01-21T20:43:25.448Z,95.66
2023-01-21T20:45:53.720Z,95.10
2023-01-21T20:48:26.019Z,95.40
2023-01-21T20:50:54.020Z,95.51
2023-01-21T20:53:21.936Z,97.46
2023-01-21T20:55:52.118Z,97.08
2023-01-21T20:58:21.891Z,97.34
2023-01-21T21:00:50.110Z,97.70
2023-01-21T21:03:19.159Z,97.35
2023-01-21T21:05:48.109Z,97.29
2023-01-21T21:08:18.024Z,100.00
2023-01-21T21:10:46.480Z,100.00
2023-01-21T21:13:15.765Z,99.20
2023-01-21T21:15:46.427Z,98.77
2023-01-21T21:18:14.435Z,98.82
2023-01-21T21:20:44.043Z,99.35
2023-01-21T21:23:14.020Z,99.09
2023-01-21T21:25:43.486Z,97.98
2023-01-21T21:28:11.575Z,97.84
2023-01-21T21:30:40.936Z,97.63
2023-01-21T21:33:15.389Z,97.86
2023-01-21T21:35:44.625Z,97.32
2023-01-21T21:38:15.135Z,98.49
2023-01-21T21:40:45.360Z,99.77
2023-01-21T21:43:43.960Z,100.00
2023-01-21T21:46:36.373Z,99.76
2023-01-21T21:49:04.642Z,96.90
2023-01-21T21:51:36.452Z,98.36
2023-01-21T21:54:05.737Z,98.37
2023-01-21T21:56:33.623Z,97.86
2023-01-21T21:59:10.518Z,98.16
2023-01-21T22:01:41.687Z,98.37
2023-01-21T22:04:09.860Z,98.57
2023-01-21T22:06:37.731Z,98.65
2023-01-21T22:09:06.018Z,98.14
2023-01-21T22:14:41.268Z,98.08
2023-01-21T22:17:13.327Z,98.15
2023-01-21T22:19:47.251Z,96.89
2023-01-21T22:22:15.137Z,97.30
2023-01-21T22:24:43.953Z,100.00
2023-01-21T22:27:13.194Z,98.74
2023-01-21T22:29:42.273Z,98.87
2023-01-21T22:32:10.172Z,98.62
2023-01-21T22:34:41.630Z,99.02
2023-01-21T22:37:16.151Z,98.36
2023-01-21T22:39:43.796Z,98.18
2023-01-21T22:42:19.729Z,98.09
2023-01-21T22:45:07.241Z,97.90
2023-01-21T22:47:35.723Z,98.64
2023-01-21T22:50:03.573Z,100.00
2023-01-21T22:52:31.228Z,100.00
2023-01-21T22:55:00.872Z,99.49
2023-01-21T22:57:28.520Z,98.80
2023-01-21T22:59:57.528Z,98.18
2023-01-21T23:02:25.540Z,97.89
2023-01-21T23:04:53.310Z,98.29
2023-01-21T23:07:21.021Z,98.73
2023-01-21T23:09:48.669Z,99.11
2023-01-21T23:12:19.479Z,98.94
2023-01-21T23:14:47.530Z,100.00
2023-01-21T23:17:17.525Z,100.00
2023-01-21T23:19:45.173Z,100.00
2023-01-21T23:22:12.789Z,100.00
2023-01-21T23:24:40.352Z,100.00
2023-01-21T23:27:07.917Z,99.77
2023-01-21T23:29:35.528Z,99.25
2023-01-21T23:32:03.268Z,99.13
2023-01-21T23:34:32.410Z,98.77
2023-01-21T23:36:59.980Z,97.98
2023-01-21T23:39:27.603Z,97.29
2023-01-21T23:41:55.818Z,96.65
2023-01-21T23:44:25.326Z,97.42
2023-01-21T23:46:52.973Z,97.76
2023-01-21T23:49:20.850Z,98.52
2023-01-21T23:51:49.926Z,98.49
2023-01-21T23:54:17.507Z,97.72
2023-01-21T23:56:45.276Z,97.66
2023-01-21T23:59:12.873Z,97.93
